createdAt,value
2022-09-05T00:02:41.847Z,10.50
2022-09-05T00:06:00.164Z,14.70
2022-09-05T00:08:48.092Z,10.32
2022-09-05T00:11:40.626Z,13.75
2022-09-05T00:14:12.022Z,20.95
2022-09-05T00:16:57.042Z,12.05
2022-09-05T00:24:31.666Z,16.40
2022-09-05T00:24:37.913Z,11.85
2022-09-05T00:26:28.700Z,13.95
2022-09-05T00:29:50.497Z,12.98
2022-09-05T00:32:17.472Z,12.75
2022-09-05T00:34:58.984Z,12.73
2022-09-05T00:37:50.431Z,14.68
2022-09-05T00:40:32.454Z,11.15
2022-09-05T00:43:05.647Z,11.25
2022-09-05T00:45:43.599Z,13.30
2022-09-05T00:48:25.469Z,12.98
2022-09-05T00:50:55.154Z,10.18
2022-09-05T00:53:25.293Z,11.75
2022-09-05T00:56:04.158Z,11.48
2022-09-05T00:59:04.372Z,11.93
2022-09-05T01:01:57.708Z,11.43
2022-09-05T01:04:53.563Z,12.93
2022-09-05T01:08:03.019Z,14.38
2022-09-05T01:11:00.654Z,13.15
2022-09-05T01:13:47.809Z,13.60
2022-09-05T01:16:40.927Z,11.48
2022-09-05T01:19:43.039Z,16.67
2022-09-05T01:22:24.178Z,11.57
2022-09-05T01:25:28.457Z,14.95
2022-09-05T01:29:12.865Z,12.13
2022-09-05T01:31:32.586Z,12.82
2022-09-05T01:34:14.607Z,15.18
2022-09-05T01:36:52.331Z,15.23
2022-09-05T01:40:11.569Z,12.10
2022-09-05T01:42:37.247Z,15.52
2022-09-05T01:45:20.770Z,13.88
2022-09-05T01:47:57.071Z,12.93
2022-09-05T01:50:58.774Z,11.70
2022-09-05T01:53:38.043Z,14.07
2022-09-05T01:56:30.004Z,13.57
2022-09-05T01:59:08.380Z,12.73
2022-09-05T02:01:59.723Z,16.00
2022-09-05T02:05:05.412Z,12.10
2022-09-05T02:08:01.520Z,12.48
2022-09-05T02:10:40.631Z,13.45
2022-09-05T02:13:27.816Z,11.90
2022-09-05T02:16:33.221Z,12.60
2022-09-05T02:19:09.120Z,14.32
2022-09-05T02:21:55.958Z,11.50
2022-09-05T02:24:27.096Z,12.40
2022-09-05T02:27:46.110Z,12.13
2022-09-05T02:30:11.331Z,14.43
2022-09-05T02:33:11.957Z,12.98
2022-09-05T02:35:59.777Z,11.43
2022-09-05T02:41:24.509Z,17.20
2022-09-05T02:45:10.274Z,14.25
2022-09-05T02:45:25.712Z,13.75
2022-09-05T02:47:59.974Z,12.77
2022-09-05T02:55:46.420Z,15.02
2022-09-05T02:57:37.223Z,12.38
2022-09-05T02:57:47.031Z,11.50
2022-09-05T03:00:25.927Z,13.63
2022-09-05T03:03:28.272Z,12.77
2022-09-05T03:06:34.246Z,10.63
2022-09-05T03:09:32.921Z,14.45
2022-09-05T03:12:29.246Z,15.38
2022-09-05T03:15:33.920Z,10.73
2022-09-05T03:18:29.736Z,13.13
2022-09-05T03:21:19.938Z,14.73
2022-09-05T03:24:05.379Z,10.45
2022-09-05T03:26:47.660Z,11.13
2022-09-05T03:29:29.505Z,9.45
2022-09-05T03:32:02.067Z,9.68
2022-09-05T03:34:53.697Z,11.80
2022-09-05T03:37:29.399Z,11.45
2022-09-05T03:40:25.482Z,17.33
2022-09-05T03:43:34.678Z,11.73
2022-09-05T03:46:08.140Z,11.98
2022-09-05T03:48:48.159Z,12.90
2022-09-05T03:57:07.800Z,11.23
2022-09-05T03:57:19.608Z,10.32
2022-09-05T03:58:03.452Z,9.18
2022-09-05T04:01:10.767Z,10.90
2022-09-05T04:08:08.181Z,11.63
2022-09-05T04:08:17.182Z,11.70
2022-09-05T04:10:00.025Z,10.95
2022-09-05T04:12:46.348Z,13.15
2022-09-05T04:15:34.832Z,13.23
2022-09-05T04:18:18.339Z,9.60
2022-09-05T04:21:21.711Z,9.55
2022-09-05T04:23:48.657Z,11.40
2022-09-05T04:26:48.018Z,11.93
2022-09-05T04:29:42.052Z,9.98
2022-09-05T04:32:19.015Z,11.48
2022-09-05T04:35:04.975Z,10.98
2022-09-05T04:37:55.356Z,11.88
2022-09-05T04:40:40.553Z,13.73
2022-09-05T04:43:54.279Z,13.07
2022-09-05T04:46:48.301Z,11.80
2022-09-05T04:49:33.311Z,12.18
2022-09-05T04:52:31.744Z,9.93
2022-09-05T04:55:07.852Z,9.07
2022-09-05T04:57:45.670Z,13.23
2022-09-05T05:06:03.250Z,10.50
2022-09-05T05:06:10.846Z,9.32
2022-09-05T05:06:13.103Z,9.65
2022-09-05T05:08:49.449Z,10.50
2022-09-05T05:17:57.231Z,13.30
2022-09-05T05:18:00.928Z,9.55
2022-09-05T05:18:16.390Z,12.38
2022-09-05T05:20:44.113Z,15.27
2022-09-05T05:23:16.259Z,17.88
2022-09-05T05:25:54.743Z,15.20
2022-09-05T05:28:28.028Z,9.95
2022-09-05T05:31:01.494Z,13.23
2022-09-05T05:33:33.833Z,15.45
2022-09-05T05:36:03.718Z,12.30
2022-09-05T05:39:02.435Z,15.27
2022-09-05T05:41:49.829Z,19.42
2022-09-05T05:44:20.575Z,21.75
2022-09-05T05:46:58.412Z,15.25
2022-09-05T05:49:34.303Z,15.77
2022-09-05T05:52:21.031Z,10.85
2022-09-05T05:55:52.456Z,14.52
2022-09-05T05:58:15.886Z,12.13
2022-09-05T06:01:04.098Z,17.90
2022-09-05T06:03:43.259Z,16.88
2022-09-05T06:06:17.097Z,15.23
2022-09-05T06:14:47.986Z,16.42
2022-09-05T06:15:00.315Z,26.80
2022-09-05T06:16:01.482Z,13.93
2022-09-05T06:18:57.446Z,13.05
2022-09-05T06:22:07.729Z,10.95
2022-09-05T06:24:58.571Z,15.43
2022-09-05T06:28:18.090Z,17.70
2022-09-05T06:30:50.895Z,9.98
2022-09-05T06:33:46.839Z,8.57
2022-09-05T06:36:36.008Z,22.10
2022-09-05T06:39:46.564Z,15.55
2022-09-05T06:42:43.241Z,8.50
2022-09-05T06:45:28.281Z,12.60
2022-09-05T06:48:44.571Z,10.52
2022-09-05T06:51:28.233Z,12.32
2022-09-05T06:54:28.860Z,11.32
2022-09-05T06:57:48.791Z,9.35
2022-09-05T07:00:23.547Z,12.77
2022-09-05T07:03:09.628Z,10.30
2022-09-05T07:05:46.943Z,11.18
2022-09-05T07:08:35.660Z,8.48
2022-09-05T07:11:16.378Z,7.90
2022-09-05T07:13:45.487Z,9.02
2022-09-05T07:16:38.980Z,10.23
2022-09-05T07:19:18.087Z,6.78
2022-09-05T07:21:47.744Z,9.82
2022-09-05T07:24:53.998Z,7.10
2022-09-05T07:27:11.147Z,11.38
2022-09-05T07:30:00.716Z,7.75
2022-09-05T07:32:31.530Z,8.98
2022-09-05T07:35:02.856Z,8.30
2022-09-05T07:37:41.730Z,10.85
2022-09-05T07:40:26.359Z,12.38
2022-09-05T07:43:09.297Z,9.40
2022-09-05T07:45:55.528Z,8.27
2022-09-05T07:48:35.043Z,6.38
2022-09-05T07:55:28.930Z,11.85
2022-09-05T07:56:52.572Z,9.30
2022-09-05T07:57:27.037Z,7.03
2022-09-05T07:59:51.107Z,5.20
2022-09-05T08:04:45.200Z,7.43
2022-09-05T08:07:51.751Z,4.50
2022-09-05T08:10:35.757Z,6.28
2022-09-05T08:13:23.661Z,10.13
2022-09-05T08:16:12.936Z,5.45
2022-09-05T08:19:09.607Z,5.72
2022-09-05T08:21:51.718Z,6.95
2022-09-05T08:24:41.268Z,9.48
2022-09-05T08:27:21.864Z,8.98
2022-09-05T08:30:26.182Z,10.05
2022-09-05T08:33:10.436Z,7.63
2022-09-05T08:35:49.811Z,7.93
2022-09-05T08:38:21.015Z,12.32
2022-09-05T08:41:52.310Z,6.97
2022-09-05T08:46:43.898Z,6.43
2022-09-05T08:47:58.643Z,5.57
2022-09-05T08:50:55.212Z,5.38
2022-09-05T08:53:47.393Z,8.50
2022-09-05T08:56:20.506Z,6.95
2022-09-05T08:59:32.141Z,7.60
2022-09-05T09:02:47.731Z,6.43
2022-09-05T09:05:14.390Z,7.20
2022-09-05T09:08:28.624Z,9.40
2022-09-05T09:11:06.063Z,4.97
2022-09-05T09:13:54.425Z,6.07
2022-09-05T09:16:30.638Z,11.68
2022-09-05T09:19:19.996Z,6.20
2022-09-05T09:22:14.551Z,9.30
2022-09-05T09:25:15.054Z,6.38
2022-09-05T09:28:47.670Z,5.90
2022-09-05T09:31:09.843Z,7.72
2022-09-05T09:33:59.733Z,6.32
2022-09-05T09:36:53.047Z,5.10
2022-09-05T09:39:38.665Z,8.63
2022-09-05T09:42:32.471Z,6.30
2022-09-05T09:45:29.251Z,6.20
2022-09-05T09:48:23.700Z,7.28
2022-09-05T09:51:06.731Z,7.97
2022-09-05T09:53:54.771Z,12.85
2022-09-05T09:56:40.494Z,7.07
2022-09-05T09:59:19.963Z,6.18
2022-09-05T10:01:56.010Z,6.32
2022-09-05T10:10:33.314Z,8.48
2022-09-05T10:10:52.195Z,8.63
2022-09-05T10:11:55.822Z,5.85
2022-09-05T10:14:49.658Z,6.07
2022-09-05T10:17:24.909Z,10.32
2022-09-05T10:20:31.806Z,8.07
2022-09-05T10:23:23.140Z,7.97
2022-09-05T10:26:08.921Z,6.70
2022-09-05T10:28:42.825Z,7.85
2022-09-05T10:35:00.745Z,8.93
2022-09-05T10:35:17.539Z,5.60
2022-09-05T10:37:23.795Z,8.02
2022-09-05T10:39:51.967Z,5.82
2022-09-05T10:43:00.939Z,7.43
2022-09-05T10:45:45.459Z,10.50
2022-09-05T10:48:24.461Z,6.97
2022-09-05T10:51:01.205Z,6.40
2022-09-05T10:53:42.916Z,5.30
2022-09-05T10:56:29.149Z,9.73
2022-09-05T11:01:04.182Z,7.25
2022-09-05T11:02:29.397Z,7.32
2022-09-05T11:05:04.027Z,7.90
2022-09-05T11:07:43.775Z,6.82
2022-09-05T11:10:14.160Z,9.50
2022-09-05T11:13:04.293Z,6.32
2022-09-05T11:15:47.814Z,6.22
2022-09-05T11:19:02.292Z,6.65
2022-09-05T11:22:13.823Z,8.63
2022-09-05T11:24:51.179Z,7.28
2022-09-05T11:27:40.087Z,6.10
2022-09-05T11:30:30.456Z,7.88
2022-09-05T11:38:55.130Z,6.90
2022-09-05T11:40:08.920Z,5.78
2022-09-05T11:40:10.854Z,4.60
2022-09-05T11:42:37.502Z,9.02
2022-09-05T11:45:22.971Z,7.05
2022-09-05T11:47:58.451Z,5.75
2022-09-05T11:50:49.161Z,6.03
2022-09-05T11:53:16.068Z,6.65
2022-09-05T11:55:53.000Z,10.88
2022-09-05T11:58:48.935Z,6.38
2022-09-05T12:01:41.788Z,6.10
2022-09-05T12:04:38.416Z,5.50
2022-09-05T12:07:29.728Z,5.63
2022-09-05T12:10:10.208Z,6.90
2022-09-05T12:13:17.172Z,6.78
2022-09-05T12:15:49.771Z,8.40
2022-09-05T12:18:54.085Z,5.60
2022-09-05T12:21:38.294Z,8.45
2022-09-05T12:25:24.690Z,7.47
2022-09-05T12:27:38.202Z,5.88
2022-09-05T12:30:00.622Z,4.82
2022-09-05T12:34:44.496Z,8.05
2022-09-05T12:40:30.214Z,6.05
2022-09-05T12:41:32.380Z,5.65
2022-09-05T12:42:25.719Z,6.15
2022-09-05T12:45:18.996Z,6.22
2022-09-05T12:48:11.326Z,6.78
2022-09-05T12:51:05.128Z,6.22
2022-09-05T12:54:03.988Z,5.32
2022-09-05T13:00:29.021Z,5.22
2022-09-05T13:03:06.705Z,6.57
2022-09-05T13:03:40.597Z,4.70
2022-09-05T13:06:04.084Z,6.97
2022-09-05T13:08:59.493Z,5.68
2022-09-05T13:14:55.293Z,7.75
2022-09-05T13:15:08.059Z,5.28
2022-09-05T13:17:16.658Z,8.63
2022-09-05T13:19:51.808Z,10.75
2022-09-05T13:22:22.743Z,5.80
2022-09-05T13:25:10.056Z,7.57
2022-09-05T13:27:46.557Z,7.53
2022-09-05T13:34:22.008Z,7.15
2022-09-05T13:38:12.200Z,7.03
2022-09-05T13:38:15.037Z,8.10
2022-09-05T13:39:09.650Z,5.43
2022-09-05T13:41:49.537Z,6.25
2022-09-05T13:44:26.762Z,6.47
2022-09-05T13:47:29.502Z,7.20
2022-09-05T13:50:23.203Z,6.63
2022-09-05T13:53:14.819Z,6.85
2022-09-05T13:56:03.751Z,5.93
2022-09-05T13:58:38.722Z,6.63
2022-09-05T14:01:33.355Z,6.65
2022-09-05T14:10:41.483Z,9.15
2022-09-05T14:13:37.024Z,5.22
2022-09-05T14:16:13.458Z,6.05
2022-09-05T14:19:07.728Z,8.43
2022-09-05T14:21:38.807Z,6.63
2022-09-05T14:24:28.001Z,5.55
2022-09-05T14:27:03.069Z,9.00
2022-09-05T14:29:55.247Z,5.05
2022-09-05T14:37:41.813Z,6.80
2022-09-05T14:37:45.376Z,8.63
2022-09-05T14:39:02.644Z,5.13
2022-09-05T14:41:44.436Z,7.53
2022-09-05T14:44:46.799Z,4.88
2022-09-05T14:47:43.748Z,5.32
2022-09-05T14:50:21.140Z,4.50
2022-09-05T15:02:38.281Z,6.95
2022-09-05T15:02:53.441Z,5.22
2022-09-05T15:04:40.896Z,6.78
2022-09-05T15:07:18.587Z,5.65
2022-09-05T15:11:47.232Z,5.90
2022-09-05T15:12:46.092Z,4.40
2022-09-05T15:15:28.815Z,3.80
2022-09-05T15:18:10.650Z,5.95
2022-09-05T15:20:46.805Z,5.97
2022-09-05T15:23:19.759Z,4.82
2022-09-05T15:26:16.076Z,4.25
2022-09-05T15:28:45.543Z,3.92
2022-09-05T15:31:23.506Z,9.00
2022-09-05T15:33:52.725Z,5.18
2022-09-05T15:36:40.240Z,6.93
2022-09-05T15:39:24.269Z,8.52
2022-09-05T15:41:53.379Z,6.65
2022-09-05T15:44:34.090Z,5.85
2022-09-05T15:47:11.297Z,6.55
2022-09-05T15:49:39.704Z,11.48
2022-09-05T15:52:34.003Z,8.02
2022-09-05T15:55:18.661Z,6.65
2022-09-05T15:57:56.534Z,8.18
2022-09-05T16:00:41.102Z,6.95
2022-09-05T16:03:55.271Z,7.35
2022-09-05T16:10:28.798Z,4.43
2022-09-05T16:10:34.624Z,5.53
2022-09-05T16:12:16.480Z,5.47
2022-09-05T16:16:55.057Z,5.03
2022-09-05T16:23:14.636Z,5.45
2022-09-05T16:23:26.777Z,5.13
2022-09-05T16:23:41.530Z,9.20
2022-09-05T16:26:31.624Z,6.25
2022-09-05T16:29:26.150Z,7.00
2022-09-05T16:32:00.113Z,5.25
2022-09-05T16:34:34.048Z,7.45
2022-09-05T16:37:09.212Z,11.52
2022-09-05T16:39:41.374Z,7.97
2022-09-05T16:42:45.974Z,8.00
2022-09-05T16:45:44.285Z,9.63
2022-09-05T16:48:23.403Z,7.50
2022-09-05T16:51:13.416Z,8.27
2022-09-05T16:53:58.191Z,8.73
2022-09-05T16:56:41.872Z,8.02
2022-09-05T16:59:11.022Z,9.40
2022-09-05T17:02:05.881Z,8.40
2022-09-05T17:05:04.792Z,19.83
2022-09-05T17:07:47.520Z,8.63
2022-09-05T17:10:20.140Z,9.18
2022-09-05T17:12:52.193Z,9.00
2022-09-05T17:15:35.471Z,7.85
2022-09-05T17:18:20.389Z,8.90
2022-09-05T17:20:56.334Z,19.73
2022-09-05T17:29:15.353Z,12.30
2022-09-05T17:29:36.091Z,16.35
2022-09-05T17:32:39.059Z,16.98
2022-09-05T17:35:42.241Z,15.82
2022-09-05T17:38:28.489Z,12.82
2022-09-05T17:41:13.462Z,9.90
2022-09-05T17:43:41.504Z,8.15
2022-09-05T17:46:20.272Z,12.63
2022-09-05T17:49:03.321Z,11.23
2022-09-05T17:51:51.471Z,11.35
2022-09-05T17:54:30.943Z,15.07
2022-09-05T17:57:26.591Z,10.13
2022-09-05T18:00:07.020Z,9.07
2022-09-05T18:02:54.608Z,8.23
2022-09-05T18:05:56.898Z,16.98
2022-09-05T18:08:46.110Z,11.88
2022-09-05T18:14:25.249Z,10.20
2022-09-05T18:17:35.517Z,8.02
2022-09-05T18:19:46.233Z,10.52
2022-09-05T18:22:33.830Z,13.43
2022-09-05T18:28:20.385Z,8.35
2022-09-05T18:30:49.786Z,7.03
2022-09-05T18:33:54.579Z,12.55
2022-09-05T18:36:28.514Z,10.95
2022-09-05T18:39:22.551Z,12.38
2022-09-05T18:42:33.137Z,9.48
2022-09-05T18:45:14.572Z,11.80
2022-09-05T18:47:51.210Z,15.27
2022-09-05T18:50:27.811Z,11.50
2022-09-05T18:53:10.743Z,7.97
2022-09-05T18:56:13.087Z,8.65
2022-09-05T18:58:52.348Z,13.93
2022-09-05T19:01:40.267Z,16.25
2022-09-05T19:04:39.058Z,12.45
2022-09-05T19:07:12.216Z,11.43
2022-09-05T19:09:58.146Z,13.00
2022-09-05T19:12:33.885Z,15.48
2022-09-05T19:15:13.858Z,13.98
2022-09-05T19:17:47.310Z,11.93
2022-09-05T19:20:32.802Z,14.25
2022-09-05T19:23:13.452Z,13.27
2022-09-05T19:25:43.877Z,10.50
2022-09-05T19:34:36.610Z,11.20
2022-09-05T19:36:48.935Z,13.57
2022-09-05T19:36:51.020Z,11.88
2022-09-05T19:37:29.661Z,13.48
2022-09-05T19:47:27.073Z,13.38
2022-09-05T19:47:40.060Z,13.98
2022-09-05T19:47:44.517Z,9.23
2022-09-05T19:48:30.716Z,14.13
2022-09-05T19:51:17.183Z,14.60
2022-09-05T19:54:03.965Z,10.43
2022-09-05T19:56:44.208Z,11.07
2022-09-05T19:59:23.949Z,8.90
2022-09-05T20:01:53.167Z,12.57
2022-09-05T20:04:21.549Z,11.73
2022-09-05T20:06:49.842Z,10.90
2022-09-05T20:09:22.439Z,11.38
2022-09-05T20:12:00.573Z,11.02
2022-09-05T20:14:30.378Z,13.93
2022-09-05T20:17:31.098Z,9.90
2022-09-05T20:20:13.167Z,10.88
2022-09-05T20:22:50.638Z,11.75
2022-09-05T20:25:43.816Z,10.57
2022-09-05T20:28:16.808Z,12.45
2022-09-05T20:30:48.336Z,12.40
2022-09-05T20:33:21.429Z,13.55
2022-09-05T20:43:14.374Z,14.82
2022-09-05T20:43:19.944Z,12.35
2022-09-05T20:43:20.493Z,16.65
2022-09-05T20:44:22.795Z,10.02
2022-09-05T20:54:08.737Z,11.60
2022-09-05T20:54:17.372Z,12.75
2022-09-05T20:54:21.530Z,13.45
2022-09-05T20:56:05.088Z,7.97
2022-09-05T20:58:33.853Z,12.90
2022-09-05T21:01:21.291Z,12.38
2022-09-05T21:04:04.126Z,9.18
2022-09-05T21:06:34.469Z,16.50
2022-09-05T21:09:24.901Z,10.85
2022-09-05T21:11:58.681Z,11.80
2022-09-05T21:14:28.852Z,9.05
2022-09-05T21:17:01.416Z,8.60
2022-09-05T21:19:42.595Z,9.23
2022-09-05T21:22:19.021Z,10.82
2022-09-05T21:24:47.303Z,11.55
2022-09-05T21:27:23.188Z,15.18
2022-09-05T21:29:58.797Z,15.80
2022-09-05T21:32:38.054Z,14.95
2022-09-05T21:35:33.752Z,11.43
2022-09-05T21:37:58.345Z,12.05
2022-09-05T21:40:25.351Z,11.15
2022-09-05T21:47:33.142Z,11.73
2022-09-05T21:47:48.625Z,10.27
2022-09-05T21:48:27.837Z,9.10
2022-09-05T21:50:57.811Z,12.05
2022-09-05T21:59:08.185Z,15.55
2022-09-05T21:59:20.060Z,14.50
2022-09-05T21:59:26.708Z,12.20
2022-09-05T22:01:57.003Z,13.73
2022-09-05T22:04:24.108Z,12.18
2022-09-05T22:06:53.304Z,10.15
2022-09-05T22:09:24.280Z,12.30
2022-09-05T22:11:51.553Z,11.23
2022-09-05T22:14:20.728Z,12.70
2022-09-05T22:16:50.687Z,14.07
2022-09-05T22:19:29.932Z,18.58
2022-09-05T22:22:16.309Z,12.45
2022-09-05T22:25:02.026Z,11.10
2022-09-05T22:27:31.791Z,13.70
2022-09-05T22:29:58.939Z,14.60
2022-09-05T22:32:34.584Z,11.60
2022-09-05T22:35:27.306Z,16.90
2022-09-05T22:38:00.372Z,10.43
2022-09-05T22:40:29.091Z,12.40
2022-09-05T22:42:57.908Z,9.68
2022-09-05T22:45:25.498Z,13.50
2022-09-05T22:47:53.064Z,16.42
2022-09-05T22:50:20.277Z,10.70
2022-09-05T22:52:47.304Z,18.30
2022-09-05T22:55:14.457Z,12.35
2022-09-05T22:57:42.070Z,11.70
2022-09-05T23:00:10.353Z,12.05
2022-09-05T23:02:37.359Z,10.68
2022-09-05T23:05:05.759Z,12.95
2022-09-05T23:07:32.976Z,12.45
2022-09-05T23:10:00.184Z,18.02
2022-09-05T23:12:27.271Z,17.73
2022-09-05T23:14:54.274Z,14.73
2022-09-05T23:17:21.348Z,12.40
2022-09-05T23:19:48.287Z,13.43
2022-09-05T23:22:15.269Z,9.50
2022-09-05T23:24:42.215Z,14.57
2022-09-05T23:27:09.160Z,12.02
2022-09-05T23:29:36.143Z,12.48
2022-09-05T23:32:03.082Z,14.85
2022-09-05T23:34:33.038Z,14.90
2022-09-05T23:37:00.136Z,15.18
2022-09-05T23:39:27.208Z,9.43
2022-09-05T23:41:54.162Z,14.40
2022-09-05T23:44:21.154Z,9.30
2022-09-05T23:46:48.080Z,11.10
2022-09-05T23:49:15.057Z,12.13
2022-09-05T23:51:42.002Z,12.02
2022-09-05T23:54:08.940Z,15.10
2022-09-05T23:56:35.928Z,14.00
2022-09-05T23:59:02.928Z,9.10
